sensor_id;sensor_type;location;lat;lon;timestamp;temperature;humidity
70557;DHT22;58107;51.034;3.726;2022-09-16T00:01:12;15.90;81.10
70557;DHT22;58107;51.034;3.726;2022-09-16T00:03:40;15.90;81.20
70557;DHT22;58107;51.034;3.726;2022-09-16T00:06:26;15.80;81.70
70557;DHT22;58107;51.034;3.726;2022-09-16T00:08:58;15.80;81.70
70557;DHT22;58107;51.034;3.726;2022-09-16T00:11:31;15.70;81.30
70557;DHT22;58107;51.034;3.726;2022-09-16T00:14:01;15.60;82.20
70557;DHT22;58107;51.034;3.726;2022-09-16T00:16:29;15.60;82.20
70557;DHT22;58107;51.034;3.726;2022-09-16T00:18:58;15.60;82.40
70557;DHT22;58107;51.034;3.726;2022-09-16T00:21:28;15.50;82.60
70557;DHT22;58107;51.034;3.726;2022-09-16T00:23:58;15.40;83.10
70557;DHT22;58107;51.034;3.726;2022-09-16T00:26:26;15.40;83.80
70557;DHT22;58107;51.034;3.726;2022-09-16T00:28:55;15.30;84.20
70557;DHT22;58107;51.034;3.726;2022-09-16T00:31:23;15.40;84.40
70557;DHT22;58107;51.034;3.726;2022-09-16T00:33:50;15.30;84.70
70557;DHT22;58107;51.034;3.726;2022-09-16T00:36:19;15.30;84.80
70557;DHT22;58107;51.034;3.726;2022-09-16T00:38:53;15.30;84.50
70557;DHT22;58107;51.034;3.726;2022-09-16T00:41:21;15.30;84.60
70557;DHT22;58107;51.034;3.726;2022-09-16T00:43:54;15.20;84.50
70557;DHT22;58107;51.034;3.726;2022-09-16T00:46:35;15.10;84.60
70557;DHT22;58107;51.034;3.726;2022-09-16T00:48:53;15.10;85.10
70557;DHT22;58107;51.034;3.726;2022-09-16T00:51:21;15.00;85.00
70557;DHT22;58107;51.034;3.726;2022-09-16T00:53:53;15.10;84.80
70557;DHT22;58107;51.034;3.726;2022-09-16T00:56:27;15.10;85.20
70557;DHT22;58107;51.034;3.726;2022-09-16T00:59:08;15.00;85.00
70557;DHT22;58107;51.034;3.726;2022-09-16T01:01:37;15.00;85.30
70557;DHT22;58107;51.034;3.726;2022-09-16T01:04:15;15.00;85.30
70557;DHT22;58107;51.034;3.726;2022-09-16T01:06:39;14.90;85.40
70557;DHT22;58107;51.034;3.726;2022-09-16T01:09:07;14.80;85.90
70557;DHT22;58107;51.034;3.726;2022-09-16T01:11:35;14.80;85.80
70557;DHT22;58107;51.034;3.726;2022-09-16T01:14:04;14.90;85.70
70557;DHT22;58107;51.034;3.726;2022-09-16T01:16:53;14.90;86.00
70557;DHT22;58107;51.034;3.726;2022-09-16T01:22:36;14.80;84.60
70557;DHT22;58107;51.034;3.726;2022-09-16T01:28:03;14.90;84.00
70557;DHT22;58107;51.034;3.726;2022-09-16T01:41:35;14.90;82.60
70557;DHT22;58107;51.034;3.726;2022-09-16T01:50:42;14.80;82.60
70557;DHT22;58107;51.034;3.726;2022-09-16T01:55:04;14.70;83.00
70557;DHT22;58107;51.034;3.726;2022-09-16T01:57:37;14.60;83.30
70557;DHT22;58107;51.034;3.726;2022-09-16T02:00:10;14.50;83.50
70557;DHT22;58107;51.034;3.726;2022-09-16T02:05:23;14.50;84.20
70557;DHT22;58107;51.034;3.726;2022-09-16T02:07:53;14.40;84.50
70557;DHT22;58107;51.034;3.726;2022-09-16T02:10:26;14.40;84.50
70557;DHT22;58107;51.034;3.726;2022-09-16T02:12:57;14.40;84.40
70557;DHT22;58107;51.034;3.726;2022-09-16T02:15:25;14.40;84.30
70557;DHT22;58107;51.034;3.726;2022-09-16T02:17:58;14.30;84.30
70557;DHT22;58107;51.034;3.726;2022-09-16T02:20:27;14.30;84.50
70557;DHT22;58107;51.034;3.726;2022-09-16T02:22:59;14.30;84.00
70557;DHT22;58107;51.034;3.726;2022-09-16T02:25:28;14.40;83.90
70557;DHT22;58107;51.034;3.726;2022-09-16T02:28:00;14.30;84.00
70557;DHT22;58107;51.034;3.726;2022-09-16T02:30:29;14.30;84.20
70557;DHT22;58107;51.034;3.726;2022-09-16T02:33:00;14.20;84.40
70557;DHT22;58107;51.034;3.726;2022-09-16T02:35:29;14.20;84.70
70557;DHT22;58107;51.034;3.726;2022-09-16T02:38:05;14.10;84.90
70557;DHT22;58107;51.034;3.726;2022-09-16T02:40:39;14.10;85.20
70557;DHT22;58107;51.034;3.726;2022-09-16T02:43:02;14.10;85.20
70557;DHT22;58107;51.034;3.726;2022-09-16T02:51:01;14.10;85.30
70557;DHT22;58107;51.034;3.726;2022-09-16T02:53:43;14.10;85.30
70557;DHT22;58107;51.034;3.726;2022-09-16T02:56:14;14.10;85.50
70557;DHT22;58107;51.034;3.726;2022-09-16T02:58:41;14.10;85.30
70557;DHT22;58107;51.034;3.726;2022-09-16T03:01:11;14.10;85.50
70557;DHT22;58107;51.034;3.726;2022-09-16T03:03:40;14.10;85.60
70557;DHT22;58107;51.034;3.726;2022-09-16T03:09:00;14.10;85.60
70557;DHT22;58107;51.034;3.726;2022-09-16T03:14:36;14.20;85.20
70557;DHT22;58107;51.034;3.726;2022-09-16T03:20:28;14.20;85.20
70557;DHT22;58107;51.034;3.726;2022-09-16T03:28:41;14.20;85.80
70557;DHT22;58107;51.034;3.726;2022-09-16T03:31:16;14.20;85.80
70557;DHT22;58107;51.034;3.726;2022-09-16T03:33:50;14.20;85.40
70557;DHT22;58107;51.034;3.726;2022-09-16T03:36:21;14.20;85.60
70557;DHT22;58107;51.034;3.726;2022-09-16T03:38:49;14.10;85.90
70557;DHT22;58107;51.034;3.726;2022-09-16T03:41:18;14.10;86.40
70557;DHT22;58107;51.034;3.726;2022-09-16T03:43:57;14.00;86.90
70557;DHT22;58107;51.034;3.726;2022-09-16T03:46:25;14.10;86.90
70557;DHT22;58107;51.034;3.726;2022-09-16T03:48:55;14.20;86.70
70557;DHT22;58107;51.034;3.726;2022-09-16T03:51:24;14.30;86.60
70557;DHT22;58107;51.034;3.726;2022-09-16T03:53:52;14.40;85.60
70557;DHT22;58107;51.034;3.726;2022-09-16T03:56:22;14.50;85.70
70557;DHT22;58107;51.034;3.726;2022-09-16T03:58:50;14.50;85.90
70557;DHT22;58107;51.034;3.726;2022-09-16T04:01:18;14.40;86.60
70557;DHT22;58107;51.034;3.726;2022-09-16T04:03:47;14.40;86.70
70557;DHT22;58107;51.034;3.726;2022-09-16T04:06:15;14.70;85.90
70557;DHT22;58107;51.034;3.726;2022-09-16T04:08:42;14.70;85.80
70557;DHT22;58107;51.034;3.726;2022-09-16T04:11:10;14.50;86.70
70557;DHT22;58107;51.034;3.726;2022-09-16T04:13:38;14.40;87.30
70557;DHT22;58107;51.034;3.726;2022-09-16T04:16:06;14.50;87.60
70557;DHT22;58107;51.034;3.726;2022-09-16T04:18:34;14.60;87.20
70557;DHT22;58107;51.034;3.726;2022-09-16T04:21:03;14.90;86.50
70557;DHT22;58107;51.034;3.726;2022-09-16T04:23:31;15.10;85.70
70557;DHT22;58107;51.034;3.726;2022-09-16T04:26:00;15.30;85.70
70557;DHT22;58107;51.034;3.726;2022-09-16T04:28:30;15.40;85.80
70557;DHT22;58107;51.034;3.726;2022-09-16T04:31:07;15.40;86.20
70557;DHT22;58107;51.034;3.726;2022-09-16T04:33:35;15.30;87.00
70557;DHT22;58107;51.034;3.726;2022-09-16T04:36:10;15.30;87.70
70557;DHT22;58107;51.034;3.726;2022-09-16T04:38:40;15.20;88.40
70557;DHT22;58107;51.034;3.726;2022-09-16T04:43:38;15.30;88.80
70557;DHT22;58107;51.034;3.726;2022-09-16T04:46:06;15.20;88.90
70557;DHT22;58107;51.034;3.726;2022-09-16T04:48:34;15.20;89.40
70557;DHT22;58107;51.034;3.726;2022-09-16T04:51:11;15.20;89.40
70557;DHT22;58107;51.034;3.726;2022-09-16T04:53:36;15.20;89.60
70557;DHT22;58107;51.034;3.726;2022-09-16T04:56:09;15.20;90.00
70557;DHT22;58107;51.034;3.726;2022-09-16T04:58:40;15.10;90.10
70557;DHT22;58107;51.034;3.726;2022-09-16T05:01:10;15.20;90.50
70557;DHT22;58107;51.034;3.726;2022-09-16T05:03:43;15.10;90.70
70557;DHT22;58107;51.034;3.726;2022-09-16T05:06:13;14.90;91.30
70557;DHT22;58107;51.034;3.726;2022-09-16T05:08:41;14.80;91.50
70557;DHT22;58107;51.034;3.726;2022-09-16T05:11:19;14.70;91.90
70557;DHT22;58107;51.034;3.726;2022-09-16T05:13:43;14.80;92.20
70557;DHT22;58107;51.034;3.726;2022-09-16T05:16:17;14.70;92.30
70557;DHT22;58107;51.034;3.726;2022-09-16T05:18:42;14.40;93.00
70557;DHT22;58107;51.034;3.726;2022-09-16T05:21:13;14.40;93.40
70557;DHT22;58107;51.034;3.726;2022-09-16T05:23:41;14.40;93.40
70557;DHT22;58107;51.034;3.726;2022-09-16T05:26:14;14.40;93.50
70557;DHT22;58107;51.034;3.726;2022-09-16T05:28:42;14.50;93.50
70557;DHT22;58107;51.034;3.726;2022-09-16T05:33:42;14.40;93.90
70557;DHT22;58107;51.034;3.726;2022-09-16T05:36:15;14.20;94.50
70557;DHT22;58107;51.034;3.726;2022-09-16T05:38:43;14.10;95.50
70557;DHT22;58107;51.034;3.726;2022-09-16T05:41:12;14.00;96.10
70557;DHT22;58107;51.034;3.726;2022-09-16T05:43:39;14.00;96.40
70557;DHT22;58107;51.034;3.726;2022-09-16T05:46:09;14.00;96.10
70557;DHT22;58107;51.034;3.726;2022-09-16T05:48:37;14.10;95.70
70557;DHT22;58107;51.034;3.726;2022-09-16T05:51:05;14.10;95.60
70557;DHT22;58107;51.034;3.726;2022-09-16T05:53:34;14.00;96.10
70557;DHT22;58107;51.034;3.726;2022-09-16T05:56:04;14.00;96.60
70557;DHT22;58107;51.034;3.726;2022-09-16T05:58:33;14.10;96.70
70557;DHT22;58107;51.034;3.726;2022-09-16T06:01:04;14.10;97.10
70557;DHT22;58107;51.034;3.726;2022-09-16T06:03:33;13.90;97.40
70557;DHT22;58107;51.034;3.726;2022-09-16T06:06:02;13.80;98.10
70557;DHT22;58107;51.034;3.726;2022-09-16T06:08:30;13.80;98.80
70557;DHT22;58107;51.034;3.726;2022-09-16T06:11:03;13.80;99.30
70557;DHT22;58107;51.034;3.726;2022-09-16T06:13:31;13.70;99.40
70557;DHT22;58107;51.034;3.726;2022-09-16T06:16:00;13.70;99.90
70557;DHT22;58107;51.034;3.726;2022-09-16T06:18:29;13.70;99.90
70557;DHT22;58107;51.034;3.726;2022-09-16T06:21:00;13.70;99.90
70557;DHT22;58107;51.034;3.726;2022-09-16T06:23:27;13.70;99.90
70557;DHT22;58107;51.034;3.726;2022-09-16T06:25:59;13.60;99.90
70557;DHT22;58107;51.034;3.726;2022-09-16T06:28:28;13.60;99.90
70557;DHT22;58107;51.034;3.726;2022-09-16T06:31:05;13.70;99.90
70557;DHT22;58107;51.034;3.726;2022-09-16T06:33:33;13.80;99.90
70557;DHT22;58107;51.034;3.726;2022-09-16T06:36:10;13.80;99.90
70557;DHT22;58107;51.034;3.726;2022-09-16T06:38:39;13.90;99.90
70557;DHT22;58107;51.034;3.726;2022-09-16T06:41:09;14.30;99.90
70557;DHT22;58107;51.034;3.726;2022-09-16T06:43:37;14.70;99.50
70557;DHT22;58107;51.034;3.726;2022-09-16T06:46:14;14.90;98.10
70557;DHT22;58107;51.034;3.726;2022-09-16T06:48:46;15.10;97.10
70557;DHT22;58107;51.034;3.726;2022-09-16T06:51:21;15.30;96.90
70557;DHT22;58107;51.034;3.726;2022-09-16T06:53:50;15.40;96.60
70557;DHT22;58107;51.034;3.726;2022-09-16T06:56:20;15.50;95.80
70557;DHT22;58107;51.034;3.726;2022-09-16T06:58:49;15.70;94.90
70557;DHT22;58107;51.034;3.726;2022-09-16T07:01:27;15.70;94.50
70557;DHT22;58107;51.034;3.726;2022-09-16T07:03:56;15.80;93.70
70557;DHT22;58107;51.034;3.726;2022-09-16T07:06:27;15.90;93.40
70557;DHT22;58107;51.034;3.726;2022-09-16T07:08:55;15.80;92.50
70557;DHT22;58107;51.034;3.726;2022-09-16T07:11:23;15.70;93.10
70557;DHT22;58107;51.034;3.726;2022-09-16T07:13:51;15.80;93.70
70557;DHT22;58107;51.034;3.726;2022-09-16T07:16:24;15.50;94.50
70557;DHT22;58107;51.034;3.726;2022-09-16T07:18:54;15.50;94.50
70557;DHT22;58107;51.034;3.726;2022-09-16T07:21:24;15.60;94.50
70557;DHT22;58107;51.034;3.726;2022-09-16T07:23:57;15.40;94.50
70557;DHT22;58107;51.034;3.726;2022-09-16T07:26:28;15.20;95.30
70557;DHT22;58107;51.034;3.726;2022-09-16T07:28:59;15.10;95.40
70557;DHT22;58107;51.034;3.726;2022-09-16T07:31:30;14.80;95.70
70557;DHT22;58107;51.034;3.726;2022-09-16T07:33:59;14.80;97.20
70557;DHT22;58107;51.034;3.726;2022-09-16T07:36:33;14.90;96.80
70557;DHT22;58107;51.034;3.726;2022-09-16T07:39:01;15.10;97.10
70557;DHT22;58107;51.034;3.726;2022-09-16T07:41:31;15.20;96.70
70557;DHT22;58107;51.034;3.726;2022-09-16T07:44:00;15.10;97.50
70557;DHT22;58107;51.034;3.726;2022-09-16T07:46:30;15.10;97.30
70557;DHT22;58107;51.034;3.726;2022-09-16T07:48:59;15.40;96.80
70557;DHT22;58107;51.034;3.726;2022-09-16T07:51:28;15.60;96.30
70557;DHT22;58107;51.034;3.726;2022-09-16T07:53:58;15.30;96.00
70557;DHT22;58107;51.034;3.726;2022-09-16T07:56:27;15.20;95.80
70557;DHT22;58107;51.034;3.726;2022-09-16T07:58:56;15.20;95.60
70557;DHT22;58107;51.034;3.726;2022-09-16T08:01:24;15.20;96.00
70557;DHT22;58107;51.034;3.726;2022-09-16T08:03:52;15.60;95.60
70557;DHT22;58107;51.034;3.726;2022-09-16T08:06:22;16.00;95.00
70557;DHT22;58107;51.034;3.726;2022-09-16T08:08:54;16.20;93.70
70557;DHT22;58107;51.034;3.726;2022-09-16T08:11:24;15.80;93.70
70557;DHT22;58107;51.034;3.726;2022-09-16T08:13:52;15.70;94.10
70557;DHT22;58107;51.034;3.726;2022-09-16T08:16:21;15.60;94.90
70557;DHT22;58107;51.034;3.726;2022-09-16T08:18:50;15.20;96.20
70557;DHT22;58107;51.034;3.726;2022-09-16T08:21:22;15.20;95.80
70557;DHT22;58107;51.034;3.726;2022-09-16T08:23:51;15.20;96.50
70557;DHT22;58107;51.034;3.726;2022-09-16T08:26:19;14.90;96.40
70557;DHT22;58107;51.034;3.726;2022-09-16T08:28:48;15.20;96.50
70557;DHT22;58107;51.034;3.726;2022-09-16T08:31:17;15.70;94.80
70557;DHT22;58107;51.034;3.726;2022-09-16T08:33:45;15.90;94.10
70557;DHT22;58107;51.034;3.726;2022-09-16T08:36:19;15.90;92.90
70557;DHT22;58107;51.034;3.726;2022-09-16T08:38:49;16.20;92.80
70557;DHT22;58107;51.034;3.726;2022-09-16T08:44:21;16.30;90.90
70557;DHT22;58107;51.034;3.726;2022-09-16T08:46:57;16.40;92.00
70557;DHT22;58107;51.034;3.726;2022-09-16T08:49:37;16.50;90.70
70557;DHT22;58107;51.034;3.726;2022-09-16T08:52:29;16.70;90.20
70557;DHT22;58107;51.034;3.726;2022-09-16T08:55:01;16.80;88.10
70557;DHT22;58107;51.034;3.726;2022-09-16T08:57:31;16.80;86.80
70557;DHT22;58107;51.034;3.726;2022-09-16T10:01:23;16.80;90.70
70557;DHT22;58107;51.034;3.726;2022-09-16T10:03:52;16.90;90.70
70557;DHT22;58107;51.034;3.726;2022-09-16T10:06:25;16.30;91.80
70557;DHT22;58107;51.034;3.726;2022-09-16T10:08:54;16.20;91.90
70557;DHT22;58107;51.034;3.726;2022-09-16T10:11:26;16.70;90.60
70557;DHT22;58107;51.034;3.726;2022-09-16T10:13:56;16.80;90.40
70557;DHT22;58107;51.034;3.726;2022-09-16T10:16:28;16.80;86.30
70557;DHT22;58107;51.034;3.726;2022-09-16T10:21:43;16.50;88.40
70557;DHT22;58107;51.034;3.726;2022-09-16T10:24:36;16.30;88.30
70557;DHT22;58107;51.034;3.726;2022-09-16T10:27:22;16.30;89.70
70557;DHT22;58107;51.034;3.726;2022-09-16T10:30:11;16.60;88.30
70557;DHT22;58107;51.034;3.726;2022-09-16T10:35:28;17.50;87.60
70557;DHT22;58107;51.034;3.726;2022-09-16T10:37:54;17.50;81.80
70557;DHT22;58107;51.034;3.726;2022-09-16T10:40:23;17.20;82.90
70557;DHT22;58107;51.034;3.726;2022-09-16T10:42:53;17.50;82.50
70557;DHT22;58107;51.034;3.726;2022-09-16T10:45:30;17.50;81.40
70557;DHT22;58107;51.034;3.726;2022-09-16T10:48:10;17.60;82.00
70557;DHT22;58107;51.034;3.726;2022-09-16T10:50:37;17.30;80.10
70557;DHT22;58107;51.034;3.726;2022-09-16T10:53:25;17.30;79.80
70557;DHT22;58107;51.034;3.726;2022-09-16T10:55:58;17.60;82.60
70557;DHT22;58107;51.034;3.726;2022-09-16T10:58:24;17.60;80.50
70557;DHT22;58107;51.034;3.726;2022-09-16T11:01:15;17.70;82.20
70557;DHT22;58107;51.034;3.726;2022-09-16T11:22:57;17.80;82.30
70557;DHT22;58107;51.034;3.726;2022-09-16T11:28:00;17.60;82.10
70557;DHT22;58107;51.034;3.726;2022-09-16T11:30:28;17.90;80.90
70557;DHT22;58107;51.034;3.726;2022-09-16T11:33:13;18.00;78.70
70557;DHT22;58107;51.034;3.726;2022-09-16T11:38:40;17.80;78.40
70557;DHT22;58107;51.034;3.726;2022-09-16T11:41:26;17.80;76.60
70557;DHT22;58107;51.034;3.726;2022-09-16T11:44:00;17.60;77.70
70557;DHT22;58107;51.034;3.726;2022-09-16T11:49:32;17.40;78.80
70557;DHT22;58107;51.034;3.726;2022-09-16T11:57:44;17.80;75.60
70557;DHT22;58107;51.034;3.726;2022-09-16T12:00:19;18.30;71.30
70557;DHT22;58107;51.034;3.726;2022-09-16T12:02:51;18.50;72.30
70557;DHT22;58107;51.034;3.726;2022-09-16T12:08:09;18.20;69.90
70557;DHT22;58107;51.034;3.726;2022-09-16T12:10:42;18.10;71.10
70557;DHT22;58107;51.034;3.726;2022-09-16T12:13:23;18.00;69.70
70557;DHT22;58107;51.034;3.726;2022-09-16T12:16:04;19.00;69.80
70557;DHT22;58107;51.034;3.726;2022-09-16T12:18:34;20.60;63.20
70557;DHT22;58107;51.034;3.726;2022-09-16T12:21:22;20.90;60.90
70557;DHT22;58107;51.034;3.726;2022-09-16T12:23:58;21.30;60.10
70557;DHT22;58107;51.034;3.726;2022-09-16T12:26:44;21.30;60.40
70557;DHT22;58107;51.034;3.726;2022-09-16T12:29:17;21.80;59.30
70557;DHT22;58107;51.034;3.726;2022-09-16T12:32:03;21.00;61.10
70557;DHT22;58107;51.034;3.726;2022-09-16T12:34:40;20.60;64.30
70557;DHT22;58107;51.034;3.726;2022-09-16T12:39:55;19.90;66.70
70557;DHT22;58107;51.034;3.726;2022-09-16T12:42:45;19.30;69.00
70557;DHT22;58107;51.034;3.726;2022-09-16T12:51:11;17.20;74.10
70557;DHT22;58107;51.034;3.726;2022-09-16T12:59:45;18.40;70.40
70557;DHT22;58107;51.034;3.726;2022-09-16T13:02:15;20.50;64.70
70557;DHT22;58107;51.034;3.726;2022-09-16T13:04:47;21.60;59.60
70557;DHT22;58107;51.034;3.726;2022-09-16T13:07:27;22.20;56.80
70557;DHT22;58107;51.034;3.726;2022-09-16T13:10:03;22.40;57.00
70557;DHT22;58107;51.034;3.726;2022-09-16T13:12:32;22.70;55.70
70557;DHT22;58107;51.034;3.726;2022-09-16T13:15:02;23.00;54.30
70557;DHT22;58107;51.034;3.726;2022-09-16T13:17:35;23.30;53.30
70557;DHT22;58107;51.034;3.726;2022-09-16T13:20:15;23.40;50.50
70557;DHT22;58107;51.034;3.726;2022-09-16T13:34:33;22.60;47.60
70557;DHT22;58107;51.034;3.726;2022-09-16T13:38:50;22.40;48.20
70557;DHT22;58107;51.034;3.726;2022-09-16T13:41:35;21.70;50.40
70557;DHT22;58107;51.034;3.726;2022-09-16T13:44:26;21.00;53.10
70557;DHT22;58107;51.034;3.726;2022-09-16T13:47:13;20.60;54.50
70557;DHT22;58107;51.034;3.726;2022-09-16T13:50:00;20.30;55.60
70557;DHT22;58107;51.034;3.726;2022-09-16T13:52:30;20.10;57.00
70557;DHT22;58107;51.034;3.726;2022-09-16T13:55:00;20.00;58.10
70557;DHT22;58107;51.034;3.726;2022-09-16T13:57:51;19.50;59.50
70557;DHT22;58107;51.034;3.726;2022-09-16T14:00:23;18.80;64.10
70557;DHT22;58107;51.034;3.726;2022-09-16T14:05:59;17.30;73.20
70557;DHT22;58107;51.034;3.726;2022-09-16T14:11:15;16.30;80.70
70557;DHT22;58107;51.034;3.726;2022-09-16T14:13:45;16.30;79.90
70557;DHT22;58107;51.034;3.726;2022-09-16T14:16:18;16.40;78.40
70557;DHT22;58107;51.034;3.726;2022-09-16T14:18:47;16.60;79.30
70557;DHT22;58107;51.034;3.726;2022-09-16T14:21:19;17.00;77.80
70557;DHT22;58107;51.034;3.726;2022-09-16T14:23:46;17.40;75.60
70557;DHT22;58107;51.034;3.726;2022-09-16T14:26:19;17.80;73.80
70557;DHT22;58107;51.034;3.726;2022-09-16T14:28:48;18.10;72.00
70557;DHT22;58107;51.034;3.726;2022-09-16T14:31:20;18.30;70.20
70557;DHT22;58107;51.034;3.726;2022-09-16T14:33:54;18.40;70.40
70557;DHT22;58107;51.034;3.726;2022-09-16T14:36:27;18.30;71.20
70557;DHT22;58107;51.034;3.726;2022-09-16T14:39:02;18.30;71.00
70557;DHT22;58107;51.034;3.726;2022-09-16T14:44:06;17.20;76.90
70557;DHT22;58107;51.034;3.726;2022-09-16T14:46:31;16.50;79.30
70557;DHT22;58107;51.034;3.726;2022-09-16T14:48:58;16.20;81.80
70557;DHT22;58107;51.034;3.726;2022-09-16T14:51:27;16.00;81.50
70557;DHT22;58107;51.034;3.726;2022-09-16T14:53:57;15.70;82.80
70557;DHT22;58107;51.034;3.726;2022-09-16T14:56:27;15.50;84.40
70557;DHT22;58107;51.034;3.726;2022-09-16T14:58:56;15.50;86.20
70557;DHT22;58107;51.034;3.726;2022-09-16T15:01:26;15.50;85.00
70557;DHT22;58107;51.034;3.726;2022-09-16T15:04:00;15.50;84.90
70557;DHT22;58107;51.034;3.726;2022-09-16T15:06:38;15.50;83.60
70557;DHT22;58107;51.034;3.726;2022-09-16T15:09:05;15.30;85.00
70557;DHT22;58107;51.034;3.726;2022-09-16T15:11:35;15.20;86.30
70557;DHT22;58107;51.034;3.726;2022-09-16T15:14:05;15.20;87.10
70557;DHT22;58107;51.034;3.726;2022-09-16T15:16:33;15.10;87.70
70557;DHT22;58107;51.034;3.726;2022-09-16T15:19:02;15.10;86.80
70557;DHT22;58107;51.034;3.726;2022-09-16T15:21:35;15.00;87.60
70557;DHT22;58107;51.034;3.726;2022-09-16T15:24:14;15.10;89.30
70557;DHT22;58107;51.034;3.726;2022-09-16T15:26:40;15.20;88.10
70557;DHT22;58107;51.034;3.726;2022-09-16T15:31:47;15.50;87.40
70557;DHT22;58107;51.034;3.726;2022-09-16T15:34:21;15.50;86.60
70557;DHT22;58107;51.034;3.726;2022-09-16T15:36:54;15.60;87.80
70557;DHT22;58107;51.034;3.726;2022-09-16T15:39:30;15.70;87.00
70557;DHT22;58107;51.034;3.726;2022-09-16T15:42:18;15.80;87.00
70557;DHT22;58107;51.034;3.726;2022-09-16T15:44:57;16.00;85.60
70557;DHT22;58107;51.034;3.726;2022-09-16T15:47:30;16.10;84.70
70557;DHT22;58107;51.034;3.726;2022-09-16T15:50:02;16.40;84.30
70557;DHT22;58107;51.034;3.726;2022-09-16T15:52:51;16.50;83.80
70557;DHT22;58107;51.034;3.726;2022-09-16T15:55:04;16.70;83.70
70557;DHT22;58107;51.034;3.726;2022-09-16T15:57:38;16.80;82.00
70557;DHT22;58107;51.034;3.726;2022-09-16T16:00:10;16.70;82.00
70557;DHT22;58107;51.034;3.726;2022-09-16T16:02:43;16.70;82.40
70557;DHT22;58107;51.034;3.726;2022-09-16T16:05:19;16.70;83.20
70557;DHT22;58107;51.034;3.726;2022-09-16T16:07:56;16.80;82.50
70557;DHT22;58107;51.034;3.726;2022-09-16T16:10:33;17.00;83.80
70557;DHT22;58107;51.034;3.726;2022-09-16T16:12:59;17.10;82.10
70557;DHT22;58107;51.034;3.726;2022-09-16T16:15:35;17.20;81.10
70557;DHT22;58107;51.034;3.726;2022-09-16T16:18:05;17.40;80.90
70557;DHT22;58107;51.034;3.726;2022-09-16T16:20:35;17.20;79.00
70557;DHT22;58107;51.034;3.726;2022-09-16T16:23:03;17.20;80.50
70557;DHT22;58107;51.034;3.726;2022-09-16T16:25:31;17.20;81.00
70557;DHT22;58107;51.034;3.726;2022-09-16T16:27:59;17.10;80.40
70557;DHT22;58107;51.034;3.726;2022-09-16T16:30:27;17.10;80.70
70557;DHT22;58107;51.034;3.726;2022-09-16T16:32:57;17.10;77.60
70557;DHT22;58107;51.034;3.726;2022-09-16T16:35:24;16.80;78.00
70557;DHT22;58107;51.034;3.726;2022-09-16T16:37:52;16.40;75.60
70557;DHT22;58107;51.034;3.726;2022-09-16T16:40:20;16.20;77.30
70557;DHT22;58107;51.034;3.726;2022-09-16T16:42:49;16.00;78.20
70557;DHT22;58107;51.034;3.726;2022-09-16T16:45:17;15.90;78.30
70557;DHT22;58107;51.034;3.726;2022-09-16T16:47:46;15.80;78.90
70557;DHT22;58107;51.034;3.726;2022-09-16T16:50:15;15.70;78.10
70557;DHT22;58107;51.034;3.726;2022-09-16T16:52:43;15.60;79.00
70557;DHT22;58107;51.034;3.726;2022-09-16T16:55:11;15.30;79.70
70557;DHT22;58107;51.034;3.726;2022-09-16T16:57:39;15.20;81.20
70557;DHT22;58107;51.034;3.726;2022-09-16T17:00:07;15.10;82.80
70557;DHT22;58107;51.034;3.726;2022-09-16T17:02:35;14.80;83.70
70557;DHT22;58107;51.034;3.726;2022-09-16T17:05:03;14.80;84.40
70557;DHT22;58107;51.034;3.726;2022-09-16T17:07:31;14.80;84.00
70557;DHT22;58107;51.034;3.726;2022-09-16T17:09:59;14.80;84.00
70557;DHT22;58107;51.034;3.726;2022-09-16T17:12:27;14.80;83.10
70557;DHT22;58107;51.034;3.726;2022-09-16T17:14:54;14.80;83.80
70557;DHT22;58107;51.034;3.726;2022-09-16T17:17:22;14.90;82.60
70557;DHT22;58107;51.034;3.726;2022-09-16T17:19:50;15.00;82.60
70557;DHT22;58107;51.034;3.726;2022-09-16T17:22:18;14.90;82.30
70557;DHT22;58107;51.034;3.726;2022-09-16T17:24:45;14.80;83.40
70557;DHT22;58107;51.034;3.726;2022-09-16T17:27:13;14.80;85.20
70557;DHT22;58107;51.034;3.726;2022-09-16T17:29:42;14.70;86.20
70557;DHT22;58107;51.034;3.726;2022-09-16T17:32:10;14.60;86.60
70557;DHT22;58107;51.034;3.726;2022-09-16T17:34:38;14.50;87.40
70557;DHT22;58107;51.034;3.726;2022-09-16T17:37:07;14.50;88.20
70557;DHT22;58107;51.034;3.726;2022-09-16T17:39:54;14.50;87.40
70557;DHT22;58107;51.034;3.726;2022-09-16T17:42:22;14.50;86.50
70557;DHT22;58107;51.034;3.726;2022-09-16T17:44:51;14.30;88.00
70557;DHT22;58107;51.034;3.726;2022-09-16T17:47:19;14.20;88.30
70557;DHT22;58107;51.034;3.726;2022-09-16T17:49:47;14.20;88.80
70557;DHT22;58107;51.034;3.726;2022-09-16T17:52:15;14.30;88.80
70557;DHT22;58107;51.034;3.726;2022-09-16T17:54:43;14.30;87.00
70557;DHT22;58107;51.034;3.726;2022-09-16T17:57:11;14.30;87.10
70557;DHT22;58107;51.034;3.726;2022-09-16T17:59:39;14.40;87.10
70557;DHT22;58107;51.034;3.726;2022-09-16T18:02:08;14.40;87.00
70557;DHT22;58107;51.034;3.726;2022-09-16T18:04:36;14.30;88.10
70557;DHT22;58107;51.034;3.726;2022-09-16T18:07:03;14.30;89.20
70557;DHT22;58107;51.034;3.726;2022-09-16T18:09:32;14.20;89.80
70557;DHT22;58107;51.034;3.726;2022-09-16T18:12:00;14.10;90.10
70557;DHT22;58107;51.034;3.726;2022-09-16T18:14:28;13.90;90.50
70557;DHT22;58107;51.034;3.726;2022-09-16T18:16:56;13.70;91.20
70557;DHT22;58107;51.034;3.726;2022-09-16T18:19:25;13.70;91.10
70557;DHT22;58107;51.034;3.726;2022-09-16T18:21:53;13.60;91.70
70557;DHT22;58107;51.034;3.726;2022-09-16T18:24:21;13.70;92.10
70557;DHT22;58107;51.034;3.726;2022-09-16T18:26:49;13.90;92.10
70557;DHT22;58107;51.034;3.726;2022-09-16T18:29:17;14.00;91.40
70557;DHT22;58107;51.034;3.726;2022-09-16T18:31:46;14.20;91.50
70557;DHT22;58107;51.034;3.726;2022-09-16T18:34:14;14.40;91.50
70557;DHT22;58107;51.034;3.726;2022-09-16T18:36:43;14.50;91.10
70557;DHT22;58107;51.034;3.726;2022-09-16T18:39:13;14.50;90.60
70557;DHT22;58107;51.034;3.726;2022-09-16T18:41:40;14.40;91.60
70557;DHT22;58107;51.034;3.726;2022-09-16T18:44:19;14.20;92.00
70557;DHT22;58107;51.034;3.726;2022-09-16T18:46:42;14.10;93.00
70557;DHT22;58107;51.034;3.726;2022-09-16T18:49:12;13.80;93.70
70557;DHT22;58107;51.034;3.726;2022-09-16T18:51:49;13.50;94.90
70557;DHT22;58107;51.034;3.726;2022-09-16T18:54:19;13.30;95.40
70557;DHT22;58107;51.034;3.726;2022-09-16T18:56:49;13.30;95.70
70557;DHT22;58107;51.034;3.726;2022-09-16T18:59:19;13.20;95.90
70557;DHT22;58107;51.034;3.726;2022-09-16T19:01:50;13.10;96.20
70557;DHT22;58107;51.034;3.726;2022-09-16T19:04:20;13.10;96.20
70557;DHT22;58107;51.034;3.726;2022-09-16T19:06:51;13.30;95.90
70557;DHT22;58107;51.034;3.726;2022-09-16T19:09:21;13.60;96.10
70557;DHT22;58107;51.034;3.726;2022-09-16T19:11:50;13.40;96.30
70557;DHT22;58107;51.034;3.726;2022-09-16T19:14:19;13.40;97.30